<?xml version="1.0" encoding="UTF-8" standalone="no" ?>
<gpx xmlns="http://www.topografix.com/GPX/1/1" xmlns:xsi="http://www.w3.org/2001/XMLSchema-instance" xsi:schemaLocation="http://www.topografix.com/GPX/1/1 http://www.topografix.com/GPX/1/1/gpx.xsd" version="1.1" creator="VisuGPX - https://www.visugpx.com">
  <metadata>
    <name>Gravel - 18 - Nebouzat</name>
  </metadata>
  <trk>
    <name><![CDATA[Gravel - 18 - Nebouzat]]></name>
    <extensions>
      <line xmlns="http://www.topografix.com/GPX/gpx_style/0/2">
        <color>0000FF</color>
        <width>4</width>
          <extensions>
            <sens>1</sens>
          </extensions>
      </line>
    </extensions>
    <trkseg>
      <trkpt lat="45.75039" lon="3.08561">
        <ele>442.122878</ele>
        <time>2022-08-21T10:19:09.937Z</time>
      </trkpt>
      <trkpt lat="45.75023" lon="3.08555">
        <ele>442.122878</ele>
        <time>2022-08-21T10:19:13.322Z</time>
      </trkpt>
      <trkpt lat="45.75016" lon="3.08549">
        <ele>442.122878</ele>
        <time>2022-08-21T10:19:15.188Z</time>
      </trkpt>
      <trkpt lat="45.75012" lon="3.08517">
        <ele>442.122878</ele>
        <time>2022-08-21T10:19:21.281Z</time>
      </trkpt>
      <trkpt lat="45.75009" lon="3.08494">
        <ele>442.122878</ele>
        <time>2022-08-21T10:19:24.890Z</time>
      </trkpt>
      <trkpt lat="45.75009" lon="3.0849">
        <ele>442.122878</ele>
        <time>2022-08-21T10:19:25.711Z</time>
      </trkpt>
      <trkpt lat="45.75007" lon="3.08476">
        <ele>442.122878</ele>
        <time>2022-08-21T10:19:28.899Z</time>
      </trkpt>
      <trkpt lat="45.75006" lon="3.08464">
        <ele>442.122878</ele>
        <time>2022-08-21T10:19:30.910Z</time>
      </trkpt>
      <trkpt lat="45.75006" lon="3.08458">
        <ele>442.122878</ele>
        <time>2022-08-21T10:19:31.761Z</time>
      </trkpt>
      <trkpt lat="45.75005" lon="3.08437">
        <ele>442.488184</ele>
        <time>2022-08-21T10:19:35.927Z</time>
      </trkpt>
      <trkpt lat="45.75015" lon="3.08418">
        <ele>442.923939</ele>
        <time>2022-08-21T10:19:40.956Z</time>
      </trkpt>
      <trkpt lat="45.75011" lon="3.08416">
        <ele>443.037653</ele>
        <time>2022-08-21T10:19:41.841Z</time>
      </trkpt>
      <trkpt lat="45.75001" lon="3.08384">
        <ele>443.682518</ele>
        <time>2022-08-21T10:19:49.827Z</time>
      </trkpt>
      <trkpt lat="45.74997" lon="3.08383">
        <ele>443.779042</ele>
        <time>2022-08-21T10:19:50.822Z</time>
      </trkpt>
      <trkpt lat="45.74995" lon="3.08359">
        <ele>444.218696</ele>
        <time>2022-08-21T10:19:55.595Z</time>
      </trkpt>
      <trkpt lat="45.74993" lon="3.08328">
        <ele>444.789314</ele>
        <time>2022-08-21T10:20:04.197Z</time>
      </trkpt>
      <trkpt lat="45.7496" lon="3.08221">
        <ele>446.988873</ele>
        <time>2022-08-21T10:20:38.862Z</time>
      </trkpt>
      <trkpt lat="45.74919" lon="3.08059">
        <ele>452.227529</ele>
        <time>2022-08-21T10:21:35.558Z</time>
      </trkpt>
      <trkpt lat="45.74911" lon="3.08">
        <ele>454.070743</ele>
        <time>2022-08-21T10:21:54.258Z</time>
      </trkpt>
      <trkpt lat="45.74895" lon="3.07941">
        <ele>455.650585</ele>
        <time>2022-08-21T10:22:12.384Z</time>
      </trkpt>
      <trkpt lat="45.74876" lon="3.07901">
        <ele>456.710782</ele>
        <time>2022-08-21T10:22:25.995Z</time>
      </trkpt>
      <trkpt lat="45.74871" lon="3.07872">
        <ele>457.399065</ele>
        <time>2022-08-21T10:22:34.674Z</time>
      </trkpt>
      <trkpt lat="45.74874" lon="3.0786">
        <ele>457.680354</ele>
        <time>2022-08-21T10:22:38.453Z</time>
      </trkpt>
      <trkpt lat="45.74852" lon="3.07834">
        <ele>458.595881</ele>
        <time>2022-08-21T10:22:48.788Z</time>
      </trkpt>
      <trkpt lat="45.74844" lon="3.07818">
        <ele>459.046139</ele>
        <time>2022-08-21T10:22:53.622Z</time>
      </trkpt>
      <trkpt lat="45.7484" lon="3.078">
        <ele>459.450902</ele>
        <time>2022-08-21T10:22:57.871Z</time>
      </trkpt>
      <trkpt lat="45.7482" lon="3.07686">
        <ele>462.342894</ele>
        <time>2022-08-21T10:23:26.823Z</time>
      </trkpt>
      <trkpt lat="45.74803" lon="3.07585">
        <ele>465.038069</ele>
        <time>2022-08-21T10:23:55.494Z</time>
      </trkpt>
      <trkpt lat="45.74799" lon="3.07562">
        <ele>465.646593</ele>
        <time>2022-08-21T10:24:02.902Z</time>
      </trkpt>
      <trkpt lat="45.74789" lon="3.07503">
        <ele>467.283675</ele>
        <time>2022-08-21T10:24:22.552Z</time>
      </trkpt>
      <trkpt lat="45.74743" lon="3.07229">
        <ele>478.725035</ele>
        <time>2022-08-21T10:26:02.581Z</time>
      </trkpt>
      <trkpt lat="45.7474" lon="3.07106">
        <ele>484.71951</ele>
        <time>2022-08-21T10:26:52.238Z</time>
      </trkpt>
      <trkpt lat="45.74736" lon="3.07082">
        <ele>485.912416</ele>
        <time>2022-08-21T10:27:02.150Z</time>
      </trkpt>
      <trkpt lat="45.74747" lon="3.07073">
        <ele>486.786686</ele>
        <time>2022-08-21T10:27:09.813Z</time>
      </trkpt>
      <trkpt lat="45.7475" lon="3.07052">
        <ele>487.830804</ele>
        <time>2022-08-21T10:27:18.463Z</time>
      </trkpt>
      <trkpt lat="45.74767" lon="3.06995">
        <ele>490.817289</ele>
        <time>2022-08-21T10:27:44.332Z</time>
      </trkpt>
      <trkpt lat="45.74797" lon="3.06849">
        <ele>498.022952</ele>
        <time>2022-08-21T10:28:47.908Z</time>
      </trkpt>
      <trkpt lat="45.74804" lon="3.06848">
        <ele>498.477876</ele>
        <time>2022-08-21T10:28:51.629Z</time>
      </trkpt>
      <trkpt lat="45.74813" lon="3.06843">
        <ele>499.112965</ele>
        <time>2022-08-21T10:28:56.783Z</time>
      </trkpt>
      <trkpt lat="45.74824" lon="3.06848">
        <ele>499.923154</ele>
        <time>2022-08-21T10:29:02.929Z</time>
      </trkpt>
      <trkpt lat="45.74861" lon="3.06863">
        <ele>502.424574</ele>
        <time>2022-08-21T10:29:21.867Z</time>
      </trkpt>
      <trkpt lat="45.74876" lon="3.06877">
        <ele>503.250028</ele>
        <time>2022-08-21T10:29:30.058Z</time>
      </trkpt>
      <trkpt lat="45.74884" lon="3.06899">
        <ele>504.086558</ele>
        <time>2022-08-21T10:29:38.047Z</time>
      </trkpt>
      <trkpt lat="45.74894" lon="3.06905">
        <ele>504.574639</ele>
        <time>2022-08-21T10:29:42.643Z</time>
      </trkpt>
      <trkpt lat="45.74897" lon="3.06895">
        <ele>504.920951</ele>
        <time>2022-08-21T10:29:45.989Z</time>
      </trkpt>
      <trkpt lat="45.74903" lon="3.06886">
        <ele>505.351514</ele>
        <time>2022-08-21T10:29:50.062Z</time>
      </trkpt>
      <trkpt lat="45.74932" lon="3.06868">
        <ele>506.846441</ele>
        <time>2022-08-21T10:30:04.109Z</time>
      </trkpt>
      <trkpt lat="45.74955" lon="3.0684">
        <ele>508.293041</ele>
        <time>2022-08-21T10:30:17.244Z</time>
      </trkpt>
      <trkpt lat="45.74966" lon="3.06836">
        <ele>508.830262</ele>
        <time>2022-08-21T10:30:22.160Z</time>
      </trkpt>
      <trkpt lat="45.75076" lon="3.06768">
        <ele>515.632141</ele>
        <time>2022-08-21T10:31:37.657Z</time>
      </trkpt>
      <trkpt lat="45.75147" lon="3.06691">
        <ele>521.028574</ele>
        <time>2022-08-21T10:32:40.685Z</time>
      </trkpt>
      <trkpt lat="45.75151" lon="3.06673">
        <ele>521.868927</ele>
        <time>2022-08-21T10:32:50.784Z</time>
      </trkpt>
      <trkpt lat="45.75157" lon="3.06645">
        <ele>523.39551</ele>
        <time>2022-08-21T10:33:05.261Z</time>
      </trkpt>
      <trkpt lat="45.75159" lon="3.06639">
        <ele>523.7735</ele>
        <time>2022-08-21T10:33:08.848Z</time>
      </trkpt>
      <trkpt lat="45.75164" lon="3.0662">
        <ele>524.800177</ele>
        <time>2022-08-21T10:33:19.805Z</time>
      </trkpt>
      <trkpt lat="45.75179" lon="3.06595">
        <ele>526.499685</ele>
        <time>2022-08-21T10:33:36.107Z</time>
      </trkpt>
      <trkpt lat="45.75205" lon="3.06572">
        <ele>528.794939</ele>
        <time>2022-08-21T10:33:59.694Z</time>
      </trkpt>
      <trkpt lat="45.75215" lon="3.06563">
        <ele>529.645633</ele>
        <time>2022-08-21T10:34:08.723Z</time>
      </trkpt>
      <trkpt lat="45.75204" lon="3.0654">
        <ele>531.108117</ele>
        <time>2022-08-21T10:34:23.846Z</time>
      </trkpt>
      <trkpt lat="45.7518" lon="3.06483">
        <ele>534.542582</ele>
        <time>2022-08-21T10:34:58.719Z</time>
      </trkpt>
      <trkpt lat="45.75157" lon="3.06424">
        <ele>537.752504</ele>
        <time>2022-08-21T10:35:32.368Z</time>
      </trkpt>
      <trkpt lat="45.75133" lon="3.06388">
        <ele>540.084007</ele>
        <time>2022-08-21T10:35:58.126Z</time>
      </trkpt>
      <trkpt lat="45.75117" lon="3.06368">
        <ele>541.527439</ele>
        <time>2022-08-21T10:36:14.891Z</time>
      </trkpt>
      <trkpt lat="45.75096" lon="3.06317">
        <ele>544.303205</ele>
        <time>2022-08-21T10:36:38.179Z</time>
      </trkpt>
      <trkpt lat="45.75079" lon="3.06294">
        <ele>545.885892</ele>
        <time>2022-08-21T10:36:50.292Z</time>
      </trkpt>
      <trkpt lat="45.75056" lon="3.06264">
        <ele>547.789544</ele>
        <time>2022-08-21T10:37:05.079Z</time>
      </trkpt>
      <trkpt lat="45.75036" lon="3.06249">
        <ele>548.992935</ele>
        <time>2022-08-21T10:37:15.617Z</time>
      </trkpt>
      <trkpt lat="45.75032" lon="3.06219">
        <ele>550.155308</ele>
        <time>2022-08-21T10:37:26.673Z</time>
      </trkpt>
      <trkpt lat="45.75034" lon="3.06215">
        <ele>550.314606</ele>
        <time>2022-08-21T10:37:28.157Z</time>
      </trkpt>
      <trkpt lat="45.75056" lon="3.06204">
        <ele>551.588647</ele>
        <time>2022-08-21T10:37:38.997Z</time>
      </trkpt>
      <trkpt lat="45.7512" lon="3.06213">
        <ele>555.087034</ele>
        <time>2022-08-21T10:38:09.960Z</time>
      </trkpt>
      <trkpt lat="45.75116" lon="3.06126">
        <ele>559.150161</ele>
        <time>2022-08-21T10:38:41.037Z</time>
      </trkpt>
      <trkpt lat="45.75241" lon="3.06091">
        <ele>569.258318</ele>
        <time>2022-08-21T10:40:02.970Z</time>
      </trkpt>
      <trkpt lat="45.75232" lon="3.06075">
        <ele>570.41254</ele>
        <time>2022-08-21T10:40:15.299Z</time>
      </trkpt>
      <trkpt lat="45.75229" lon="3.06059">
        <ele>571.391917</ele>
        <time>2022-08-21T10:40:23.240Z</time>
      </trkpt>
      <trkpt lat="45.75245" lon="3.05989">
        <ele>576.25677</ele>
        <time>2022-08-21T10:40:58.042Z</time>
      </trkpt>
      <trkpt lat="45.75247" lon="3.05985">
        <ele>576.597973</ele>
        <time>2022-08-21T10:41:00.441Z</time>
      </trkpt>
      <trkpt lat="45.7525" lon="3.05973">
        <ele>577.412255</ele>
        <time>2022-08-21T10:41:08.942Z</time>
      </trkpt>
      <trkpt lat="45.75273" lon="3.05948">
        <ele>580.153373</ele>
        <time>2022-08-21T10:41:27.172Z</time>
      </trkpt>
      <trkpt lat="45.7538" lon="3.0593">
        <ele>590.19694</ele>
        <time>2022-08-21T10:42:46.266Z</time>
      </trkpt>
      <trkpt lat="45.75398" lon="3.05931">
        <ele>591.748104</ele>
        <time>2022-08-21T10:42:59.456Z</time>
      </trkpt>
      <trkpt lat="45.75433" lon="3.05954">
        <ele>595.041311</ele>
        <time>2022-08-21T10:43:22.201Z</time>
      </trkpt>
      <trkpt lat="45.75465" lon="3.05897">
        <ele>599.469655</ele>
        <time>2022-08-21T10:43:53.610Z</time>
      </trkpt>
      <trkpt lat="45.7547" lon="3.05884">
        <ele>600.365242</ele>
        <time>2022-08-21T10:43:59.982Z</time>
      </trkpt>
      <trkpt lat="45.75466" lon="3.05856">
        <ele>602.096624</ele>
        <time>2022-08-21T10:44:13.061Z</time>
      </trkpt>
      <trkpt lat="45.75364" lon="3.05721">
        <ele>615.877224</ele>
        <time>2022-08-21T10:45:52.212Z</time>
      </trkpt>
      <trkpt lat="45.7536" lon="3.05705">
        <ele>617.048237</ele>
        <time>2022-08-21T10:46:01.648Z</time>
      </trkpt>
      <trkpt lat="45.75362" lon="3.05695">
        <ele>617.708932</ele>
        <time>2022-08-21T10:46:06.723Z</time>
      </trkpt>
      <trkpt lat="45.75372" lon="3.05681">
        <ele>619.196514</ele>
        <time>2022-08-21T10:46:16.982Z</time>
      </trkpt>
      <trkpt lat="45.75513" lon="3.05639">
        <ele>636.470102</ele>
        <time>2022-08-21T10:48:17.351Z</time>
      </trkpt>
      <trkpt lat="45.75504" lon="3.05615">
        <ele>638.857214</ele>
        <time>2022-08-21T10:48:35.351Z</time>
      </trkpt>
      <trkpt lat="45.75507" lon="3.0559">
        <ele>641.050958</ele>
        <time>2022-08-21T10:48:50.203Z</time>
      </trkpt>
      <trkpt lat="45.75553" lon="3.05523">
        <ele>649.24757</ele>
        <time>2022-08-21T10:49:49.356Z</time>
      </trkpt>
      <trkpt lat="45.75556" lon="3.05501">
        <ele>651.175013</ele>
        <time>2022-08-21T10:50:03.374Z</time>
      </trkpt>
      <trkpt lat="45.75547" lon="3.05478">
        <ele>653.470281</ele>
        <time>2022-08-21T10:50:19.786Z</time>
      </trkpt>
      <trkpt lat="45.75521" lon="3.05446">
        <ele>657.756926</ele>
        <time>2022-08-21T10:50:49.231Z</time>
      </trkpt>
      <trkpt lat="45.75517" lon="3.05427">
        <ele>659.475862</ele>
        <time>2022-08-21T10:51:00.148Z</time>
      </trkpt>
      <trkpt lat="45.75525" lon="3.05382">
        <ele>663.460844</ele>
        <time>2022-08-21T10:51:26.293Z</time>
      </trkpt>
      <trkpt lat="45.75531" lon="3.05343">
        <ele>666.80299</ele>
        <time>2022-08-21T10:51:48.438Z</time>
      </trkpt>
      <trkpt lat="45.75529" lon="3.05281">
        <ele>670.780936</ele>
        <time>2022-08-21T10:52:21.840Z</time>
      </trkpt>
      <trkpt lat="45.75547" lon="3.05261">
        <ele>672.970748</ele>
        <time>2022-08-21T10:52:38.865Z</time>
      </trkpt>
      <trkpt lat="45.75559" lon="3.05237">
        <ele>674.81988</ele>
        <time>2022-08-21T10:52:52.936Z</time>
      </trkpt>
      <trkpt lat="45.7557" lon="3.05184">
        <ele>678.402414</ele>
        <time>2022-08-21T10:53:18.216Z</time>
      </trkpt>
      <trkpt lat="45.75571" lon="3.05154">
        <ele>680.311535</ele>
        <time>2022-08-21T10:53:31.310Z</time>
      </trkpt>
      <trkpt lat="45.75569" lon="3.05071">
        <ele>685.395893</ele>
        <time>2022-08-21T10:54:04.136Z</time>
      </trkpt>
      <trkpt lat="45.75557" lon="3.05018">
        <ele>688.653869</ele>
        <time>2022-08-21T10:54:26.379Z</time>
      </trkpt>
      <trkpt lat="45.75517" lon="3.04918">
        <ele>695.419848</ele>
        <time>2022-08-21T10:55:18.320Z</time>
      </trkpt>
      <trkpt lat="45.75489" lon="3.04864">
        <ele>700.105152</ele>
        <time>2022-08-21T10:55:51.186Z</time>
      </trkpt>
      <trkpt lat="45.75457" lon="3.04823">
        <ele>705.9082</ele>
        <time>2022-08-21T10:56:24.742Z</time>
      </trkpt>
      <trkpt lat="45.75362" lon="3.04745">
        <ele>720.60393</ele>
        <time>2022-08-21T10:58:10.469Z</time>
      </trkpt>
      <trkpt lat="45.75244" lon="3.04698">
        <ele>737.27804</ele>
        <time>2022-08-21T11:00:16.680Z</time>
      </trkpt>
      <trkpt lat="45.75222" lon="3.04676">
        <ele>740.84876</ele>
        <time>2022-08-21T11:00:39.366Z</time>
      </trkpt>
      <trkpt lat="45.7522" lon="3.04619">
        <ele>746.24852</ele>
        <time>2022-08-21T11:01:08.141Z</time>
      </trkpt>
      <trkpt lat="45.75216" lon="3.0459">
        <ele>747.636029</ele>
        <time>2022-08-21T11:01:23.924Z</time>
      </trkpt>
      <trkpt lat="45.75177" lon="3.04524">
        <ele>750.873004</ele>
        <time>2022-08-21T11:01:54.064Z</time>
      </trkpt>
      <trkpt lat="45.75175" lon="3.04484">
        <ele>752.395603</ele>
        <time>2022-08-21T11:02:04.815Z</time>
      </trkpt>
      <trkpt lat="45.75195" lon="3.04419">
        <ele>755.054074</ele>
        <time>2022-08-21T11:02:21.164Z</time>
      </trkpt>
      <trkpt lat="45.75248" lon="3.04376">
        <ele>758.855964</ele>
        <time>2022-08-21T11:02:48.452Z</time>
      </trkpt>
      <trkpt lat="45.75303" lon="3.04282">
        <ele>764.814453</ele>
        <time>2022-08-21T11:03:41.910Z</time>
      </trkpt>
      <trkpt lat="45.7531" lon="3.04254">
        <ele>766.208642</ele>
        <time>2022-08-21T11:03:49.089Z</time>
      </trkpt>
      <trkpt lat="45.75305" lon="3.04233">
        <ele>767.301639</ele>
        <time>2022-08-21T11:04:03.915Z</time>
      </trkpt>
      <trkpt lat="45.75255" lon="3.04176">
        <ele>772.879794</ele>
        <time>2022-08-21T11:04:42.662Z</time>
      </trkpt>
      <trkpt lat="45.75243" lon="3.04145">
        <ele>775.244036</ele>
        <time>2022-08-21T11:04:59.184Z</time>
      </trkpt>
      <trkpt lat="45.75244" lon="3.04102">
        <ele>778.186622</ele>
        <time>2022-08-21T11:05:26.347Z</time>
      </trkpt>
      <trkpt lat="45.75279" lon="3.0404">
        <ele>783.551239</ele>
        <time>2022-08-21T11:06:10.877Z</time>
      </trkpt>
      <trkpt lat="45.75277" lon="3.04007">
        <ele>785.818169</ele>
        <time>2022-08-21T11:06:25.579Z</time>
      </trkpt>
      <trkpt lat="45.75197" lon="3.03924">
        <ele>790.088778</ele>
        <time>2022-08-21T11:07:20.503Z</time>
      </trkpt>
      <trkpt lat="45.7517" lon="3.03869">
        <ele>792.024667</ele>
        <time>2022-08-21T11:07:35.856Z</time>
      </trkpt>
      <trkpt lat="45.75152" lon="3.03808">
        <ele>793.464302</ele>
        <time>2022-08-21T11:07:46.584Z</time>
      </trkpt>
      <trkpt lat="45.75148" lon="3.03772">
        <ele>792.962705</ele>
        <time>2022-08-21T11:07:51.655Z</time>
      </trkpt>
      <trkpt lat="45.75158" lon="3.03732">
        <ele>792.3612</ele>
        <time>2022-08-21T11:07:56.548Z</time>
      </trkpt>
      <trkpt lat="45.7518" lon="3.0371">
        <ele>791.816956</ele>
        <time>2022-08-21T11:08:00.838Z</time>
      </trkpt>
      <trkpt lat="45.75203" lon="3.03707">
        <ele>791.366105</ele>
        <time>2022-08-21T11:08:05.234Z</time>
      </trkpt>
      <trkpt lat="45.75282" lon="3.03738">
        <ele>791.21041</ele>
        <time>2022-08-21T11:08:19.545Z</time>
      </trkpt>
      <trkpt lat="45.75298" lon="3.03725">
        <ele>792.634081</ele>
        <time>2022-08-21T11:08:24.196Z</time>
      </trkpt>
      <trkpt lat="45.75302" lon="3.03698">
        <ele>794.173435</ele>
        <time>2022-08-21T11:08:29.830Z</time>
      </trkpt>
      <trkpt lat="45.75289" lon="3.03676">
        <ele>795.767385</ele>
        <time>2022-08-21T11:08:42.378Z</time>
      </trkpt>
      <trkpt lat="45.75242" lon="3.03669">
        <ele>799.475703</ele>
        <time>2022-08-21T11:09:16.107Z</time>
      </trkpt>
      <trkpt lat="45.75187" lon="3.03632">
        <ele>804.326738</ele>
        <time>2022-08-21T11:10:11.608Z</time>
      </trkpt>
      <trkpt lat="45.75165" lon="3.03607">
        <ele>808.748064</ele>
        <time>2022-08-21T11:10:39.405Z</time>
      </trkpt>
      <trkpt lat="45.75147" lon="3.03566">
        <ele>814.046105</ele>
        <time>2022-08-21T11:11:15.354Z</time>
      </trkpt>
      <trkpt lat="45.75062" lon="3.03408">
        <ele>834.708668</ele>
        <time>2022-08-21T11:13:41.017Z</time>
      </trkpt>
      <trkpt lat="45.75045" lon="3.03386">
        <ele>836.921092</ele>
        <time>2022-08-21T11:14:02.649Z</time>
      </trkpt>
      <trkpt lat="45.75023" lon="3.03367">
        <ele>839.391757</ele>
        <time>2022-08-21T11:14:22.740Z</time>
      </trkpt>
      <trkpt lat="45.74972" lon="3.03336">
        <ele>844.798934</ele>
        <time>2022-08-21T11:15:00.203Z</time>
      </trkpt>
      <trkpt lat="45.74945" lon="3.03309">
        <ele>848.003855</ele>
        <time>2022-08-21T11:15:18.632Z</time>
      </trkpt>
      <trkpt lat="45.74906" lon="3.03267">
        <ele>850.526356</ele>
        <time>2022-08-21T11:15:38.528Z</time>
      </trkpt>
      <trkpt lat="45.74863" lon="3.03217">
        <ele>851.391388</ele>
        <time>2022-08-21T11:15:55.181Z</time>
      </trkpt>
      <trkpt lat="45.74848" lon="3.03192">
        <ele>851.746868</ele>
        <time>2022-08-21T11:16:01.898Z</time>
      </trkpt>
      <trkpt lat="45.74829" lon="3.03136">
        <ele>852.425835</ele>
        <time>2022-08-21T11:16:13.180Z</time>
      </trkpt>
      <trkpt lat="45.74826" lon="3.03109">
        <ele>852.720877</ele>
        <time>2022-08-21T11:16:17.280Z</time>
      </trkpt>
      <trkpt lat="45.74822" lon="3.03086">
        <ele>852.789395</ele>
        <time>2022-08-21T11:16:20.668Z</time>
      </trkpt>
      <trkpt lat="45.74815" lon="3.0304">
        <ele>851.868651</ele>
        <time>2022-08-21T11:16:27.140Z</time>
      </trkpt>
      <trkpt lat="45.7481" lon="3.03004">
        <ele>851.132286</ele>
        <time>2022-08-21T11:16:32.110Z</time>
      </trkpt>
      <trkpt lat="45.748" lon="3.02943">
        <ele>849.909701</ele>
        <time>2022-08-21T11:16:39.945Z</time>
      </trkpt>
      <trkpt lat="45.74798" lon="3.02934">
        <ele>849.738683</ele>
        <time>2022-08-21T11:16:40.965Z</time>
      </trkpt>
      <trkpt lat="45.74792" lon="3.02894">
        <ele>848.931838</ele>
        <time>2022-08-21T11:16:45.593Z</time>
      </trkpt>
      <trkpt lat="45.74784" lon="3.02849">
        <ele>848.017623</ele>
        <time>2022-08-21T11:16:50.782Z</time>
      </trkpt>
      <trkpt lat="45.7477" lon="3.02763">
        <ele>844.547842</ele>
        <time>2022-08-21T11:17:00.447Z</time>
      </trkpt>
      <trkpt lat="45.74762" lon="3.02683">
        <ele>841.203506</ele>
        <time>2022-08-21T11:17:09.083Z</time>
      </trkpt>
      <trkpt lat="45.74775" lon="3.02634">
        <ele>839.010831</ele>
        <time>2022-08-21T11:17:14.652Z</time>
      </trkpt>
      <trkpt lat="45.74805" lon="3.02549">
        <ele>835.882395</ele>
        <time>2022-08-21T11:17:24.717Z</time>
      </trkpt>
      <trkpt lat="45.74811" lon="3.02508">
        <ele>834.825374</ele>
        <time>2022-08-21T11:17:29.268Z</time>
      </trkpt>
      <trkpt lat="45.74806" lon="3.02468">
        <ele>833.796518</ele>
        <time>2022-08-21T11:17:33.909Z</time>
      </trkpt>
      <trkpt lat="45.74779" lon="3.02389">
        <ele>831.557487</ele>
        <time>2022-08-21T11:17:44.972Z</time>
      </trkpt>
      <trkpt lat="45.74782" lon="3.02376">
        <ele>831.225392</ele>
        <time>2022-08-21T11:17:46.698Z</time>
      </trkpt>
      <trkpt lat="45.7478" lon="3.02359">
        <ele>830.771351</ele>
        <time>2022-08-21T11:17:49.131Z</time>
      </trkpt>
      <trkpt lat="45.74771" lon="3.02346">
        <ele>830.802301</ele>
        <time>2022-08-21T11:17:51.585Z</time>
      </trkpt>
      <trkpt lat="45.74762" lon="3.02332">
        <ele>831.056826</ele>
        <time>2022-08-21T11:17:54.426Z</time>
      </trkpt>
      <trkpt lat="45.74747" lon="3.02282">
        <ele>831.766567</ele>
        <time>2022-08-21T11:18:04.175Z</time>
      </trkpt>
      <trkpt lat="45.74696" lon="3.02192">
        <ele>833.280889</ele>
        <time>2022-08-21T11:18:31.659Z</time>
      </trkpt>
      <trkpt lat="45.74708" lon="3.02162">
        <ele>833.737856</ele>
        <time>2022-08-21T11:18:41.117Z</time>
      </trkpt>
      <trkpt lat="45.74714" lon="3.02133">
        <ele>834.506854</ele>
        <time>2022-08-21T11:18:50.067Z</time>
      </trkpt>
      <trkpt lat="45.74707" lon="3.02102">
        <ele>836.124625</ele>
        <time>2022-08-21T11:19:00.629Z</time>
      </trkpt>
      <trkpt lat="45.74657" lon="3.02045">
        <ele>840.660169</ele>
        <time>2022-08-21T11:19:37.363Z</time>
      </trkpt>
      <trkpt lat="45.74634" lon="3.02003">
        <ele>843.320869</ele>
        <time>2022-08-21T11:20:01.773Z</time>
      </trkpt>
      <trkpt lat="45.74622" lon="3.01954">
        <ele>845.896855</ele>
        <time>2022-08-21T11:20:25.948Z</time>
      </trkpt>
      <trkpt lat="45.74613" lon="3.01871">
        <ele>851.261903</ele>
        <time>2022-08-21T11:21:06.775Z</time>
      </trkpt>
      <trkpt lat="45.74612" lon="3.01862">
        <ele>851.91847</ele>
        <time>2022-08-21T11:21:11.355Z</time>
      </trkpt>
      <trkpt lat="45.746" lon="3.01818">
        <ele>855.131191</ele>
        <time>2022-08-21T11:21:35.861Z</time>
      </trkpt>
      <trkpt lat="45.74579" lon="3.01774">
        <ele>858.701636</ele>
        <time>2022-08-21T11:22:04.044Z</time>
      </trkpt>
      <trkpt lat="45.74571" lon="3.01754">
        <ele>860.299991</ele>
        <time>2022-08-21T11:22:16.636Z</time>
      </trkpt>
      <trkpt lat="45.7456" lon="3.0173">
        <ele>862.242101</ele>
        <time>2022-08-21T11:22:32.137Z</time>
      </trkpt>
      <trkpt lat="45.74554" lon="3.01716">
        <ele>863.364012</ele>
        <time>2022-08-21T11:22:40.482Z</time>
      </trkpt>
      <trkpt lat="45.74545" lon="3.0169">
        <ele>865.113439</ele>
        <time>2022-08-21T11:22:54.419Z</time>
      </trkpt>
      <trkpt lat="45.74524" lon="3.01606">
        <ele>869.973671</ele>
        <time>2022-08-21T11:23:33.834Z</time>
      </trkpt>
      <trkpt lat="45.74513" lon="3.01491">
        <ele>876.298242</ele>
        <time>2022-08-21T11:24:22.307Z</time>
      </trkpt>
      <trkpt lat="45.74494" lon="3.01448">
        <ele>879.049351</ele>
        <time>2022-08-21T11:24:43.067Z</time>
      </trkpt>
      <trkpt lat="45.74491" lon="3.01437">
        <ele>879.628157</ele>
        <time>2022-08-21T11:24:47.449Z</time>
      </trkpt>
      <trkpt lat="45.74533" lon="3.01447">
        <ele>882.719594</ele>
        <time>2022-08-21T11:25:10.401Z</time>
      </trkpt>
      <trkpt lat="45.74545" lon="3.01456">
        <ele>883.701312</ele>
        <time>2022-08-21T11:25:18.036Z</time>
      </trkpt>
      <trkpt lat="45.74548" lon="3.01398">
        <ele>886.649295</ele>
        <time>2022-08-21T11:25:42.155Z</time>
      </trkpt>
      <trkpt lat="45.74554" lon="3.01349">
        <ele>889.177336</ele>
        <time>2022-08-21T11:26:04.304Z</time>
      </trkpt>
      <trkpt lat="45.74533" lon="3.01293">
        <ele>892.539602</ele>
        <time>2022-08-21T11:26:31.677Z</time>
      </trkpt>
      <trkpt lat="45.74567" lon="3.01294">
        <ele>895.320511</ele>
        <time>2022-08-21T11:26:52.963Z</time>
      </trkpt>
      <trkpt lat="45.74592" lon="3.01295">
        <ele>897.37751</ele>
        <time>2022-08-21T11:27:09.946Z</time>
      </trkpt>
      <trkpt lat="45.74607" lon="3.0129">
        <ele>898.591405</ele>
        <time>2022-08-21T11:27:18.536Z</time>
      </trkpt>
      <trkpt lat="45.74613" lon="3.01282">
        <ele>899.277209</ele>
        <time>2022-08-21T11:27:25.006Z</time>
      </trkpt>
      <trkpt lat="45.74624" lon="3.01256">
        <ele>901.01897</ele>
        <time>2022-08-21T11:27:38.129Z</time>
      </trkpt>
      <trkpt lat="45.74626" lon="3.01224">
        <ele>902.835734</ele>
        <time>2022-08-21T11:27:52.885Z</time>
      </trkpt>
      <trkpt lat="45.74616" lon="3.01157">
        <ele>906.621054</ele>
        <time>2022-08-21T11:28:22.781Z</time>
      </trkpt>
      <trkpt lat="45.74587" lon="3.01052">
        <ele>912.365554</ele>
        <time>2022-08-21T11:29:10.243Z</time>
      </trkpt>
      <trkpt lat="45.74561" lon="3.00977">
        <ele>916.639672</ele>
        <time>2022-08-21T11:29:43.142Z</time>
      </trkpt>
      <trkpt lat="45.74521" lon="3.00911">
        <ele>921.123219</ele>
        <time>2022-08-21T11:30:17.363Z</time>
      </trkpt>
      <trkpt lat="45.74507" lon="3.00862">
        <ele>923.874025</ele>
        <time>2022-08-21T11:30:38.141Z</time>
      </trkpt>
      <trkpt lat="45.74488" lon="3.00737">
        <ele>930.603367</ele>
        <time>2022-08-21T11:31:31.514Z</time>
      </trkpt>
      <trkpt lat="45.74481" lon="3.00647">
        <ele>935.985268</ele>
        <time>2022-08-21T11:32:12.738Z</time>
      </trkpt>
      <trkpt lat="45.74489" lon="3.00613">
        <ele>938.333043</ele>
        <time>2022-08-21T11:32:30.449Z</time>
      </trkpt>
      <trkpt lat="45.74515" lon="3.00492">
        <ele>946.545729</ele>
        <time>2022-08-21T11:33:33.506Z</time>
      </trkpt>
      <trkpt lat="45.74545" lon="3.00435">
        <ele>950.858158</ele>
        <time>2022-08-21T11:34:09.399Z</time>
      </trkpt>
      <trkpt lat="45.7463" lon="3.00254">
        <ele>962.707288</ele>
        <time>2022-08-21T11:35:42.481Z</time>
      </trkpt>
      <trkpt lat="45.74637" lon="3.00239">
        <ele>963.44325</ele>
        <time>2022-08-21T11:35:48.523Z</time>
      </trkpt>
      <trkpt lat="45.74656" lon="3.00137">
        <ele>966.364942</ele>
        <time>2022-08-21T11:36:23.342Z</time>
      </trkpt>
      <trkpt lat="45.74662" lon="3.00101">
        <ele>967.367581</ele>
        <time>2022-08-21T11:36:34.099Z</time>
      </trkpt>
      <trkpt lat="45.74671" lon="3.0005">
        <ele>968.820497</ele>
        <time>2022-08-21T11:36:48.439Z</time>
      </trkpt>
      <trkpt lat="45.74699" lon="2.99854">
        <ele>970.696468</ele>
        <time>2022-08-21T11:37:28.608Z</time>
      </trkpt>
      <trkpt lat="45.74731" lon="2.99584">
        <ele>969.017647</ele>
        <time>2022-08-21T11:38:06.378Z</time>
      </trkpt>
      <trkpt lat="45.74743" lon="2.99435">
        <ele>966.361724</ele>
        <time>2022-08-21T11:38:24.634Z</time>
      </trkpt>
      <trkpt lat="45.74735" lon="2.99379">
        <ele>964.749082</ele>
        <time>2022-08-21T11:38:31.404Z</time>
      </trkpt>
      <trkpt lat="45.74717" lon="2.99325">
        <ele>963.07298</ele>
        <time>2022-08-21T11:38:38.326Z</time>
      </trkpt>
      <trkpt lat="45.74626" lon="2.99092">
        <ele>954.248578</ele>
        <time>2022-08-21T11:39:07.697Z</time>
      </trkpt>
      <trkpt lat="45.74538" lon="2.98941">
        <ele>947.536275</ele>
        <time>2022-08-21T11:39:29.442Z</time>
      </trkpt>
      <trkpt lat="45.74479" lon="2.98863">
        <ele>943.730525</ele>
        <time>2022-08-21T11:39:42.397Z</time>
      </trkpt>
      <trkpt lat="45.74438" lon="2.98826">
        <ele>942.272824</ele>
        <time>2022-08-21T11:39:50.205Z</time>
      </trkpt>
      <trkpt lat="45.74403" lon="2.98783">
        <ele>941.322922</ele>
        <time>2022-08-21T11:39:57.872Z</time>
      </trkpt>
      <trkpt lat="45.74393" lon="2.98761">
        <ele>940.92546</ele>
        <time>2022-08-21T11:40:01.305Z</time>
      </trkpt>
      <trkpt lat="45.74382" lon="2.98679">
        <ele>939.727772</ele>
        <time>2022-08-21T11:40:12.018Z</time>
      </trkpt>
      <trkpt lat="45.7437" lon="2.98255">
        <ele>945.33675</ele>
        <time>2022-08-21T11:41:48.771Z</time>
      </trkpt>
      <trkpt lat="45.74322" lon="2.98033">
        <ele>950.060036</ele>
        <time>2022-08-21T11:42:59.248Z</time>
      </trkpt>
      <trkpt lat="45.74288" lon="2.97898">
        <ele>952.73008</ele>
        <time>2022-08-21T11:43:32.195Z</time>
      </trkpt>
      <trkpt lat="45.74203" lon="2.97399">
        <ele>952.887628</ele>
        <time>2022-08-21T11:44:48.832Z</time>
      </trkpt>
      <trkpt lat="45.74171" lon="2.97234">
        <ele>955.977423</ele>
        <time>2022-08-21T11:45:27.336Z</time>
      </trkpt>
      <trkpt lat="45.74148" lon="2.97089">
        <ele>959.381781</ele>
        <time>2022-08-21T11:46:14.849Z</time>
      </trkpt>
      <trkpt lat="45.74139" lon="2.97039">
        <ele>960.886639</ele>
        <time>2022-08-21T11:46:30.751Z</time>
      </trkpt>
      <trkpt lat="45.74126" lon="2.97">
        <ele>962.166112</ele>
        <time>2022-08-21T11:46:43.795Z</time>
      </trkpt>
      <trkpt lat="45.74117" lon="2.96975">
        <ele>962.975266</ele>
        <time>2022-08-21T11:46:51.019Z</time>
      </trkpt>
      <trkpt lat="45.74102" lon="2.96906">
        <ele>965.095787</ele>
        <time>2022-08-21T11:47:11.295Z</time>
      </trkpt>
      <trkpt lat="45.74104" lon="2.96879">
        <ele>965.913399</ele>
        <time>2022-08-21T11:47:19.381Z</time>
      </trkpt>
      <trkpt lat="45.74114" lon="2.96859">
        <ele>966.689469</ele>
        <time>2022-08-21T11:47:27.956Z</time>
      </trkpt>
      <trkpt lat="45.74141" lon="2.96828">
        <ele>968.244018</ele>
        <time>2022-08-21T11:47:44.843Z</time>
      </trkpt>
      <trkpt lat="45.74145" lon="2.96792">
        <ele>969.373051</ele>
        <time>2022-08-21T11:47:56.931Z</time>
      </trkpt>
      <trkpt lat="45.74139" lon="2.96772">
        <ele>970.040927</ele>
        <time>2022-08-21T11:48:03.555Z</time>
      </trkpt>
      <trkpt lat="45.74131" lon="2.96754">
        <ele>970.72297</ele>
        <time>2022-08-21T11:48:10.323Z</time>
      </trkpt>
      <trkpt lat="45.74127" lon="2.96744">
        <ele>971.081673</ele>
        <time>2022-08-21T11:48:13.895Z</time>
      </trkpt>
      <trkpt lat="45.74124" lon="2.96736">
        <ele>971.363253</ele>
        <time>2022-08-21T11:48:16.550Z</time>
      </trkpt>
      <trkpt lat="45.74122" lon="2.96732">
        <ele>971.50457</ele>
        <time>2022-08-21T11:48:17.970Z</time>
      </trkpt>
      <trkpt lat="45.74114" lon="2.96712">
        <ele>972.217585</ele>
        <time>2022-08-21T11:48:24.289Z</time>
      </trkpt>
      <trkpt lat="45.74098" lon="2.96678">
        <ele>973.503877</ele>
        <time>2022-08-21T11:48:36.020Z</time>
      </trkpt>
      <trkpt lat="45.7409" lon="2.96664">
        <ele>974.122245</ele>
        <time>2022-08-21T11:48:41.923Z</time>
      </trkpt>
      <trkpt lat="45.74073" lon="2.96629">
        <ele>975.546987</ele>
        <time>2022-08-21T11:48:54.988Z</time>
      </trkpt>
      <trkpt lat="45.74071" lon="2.96622">
        <ele>975.788351</ele>
        <time>2022-08-21T11:48:57.391Z</time>
      </trkpt>
      <trkpt lat="45.74066" lon="2.96567">
        <ele>977.653546</ele>
        <time>2022-08-21T11:49:16.154Z</time>
      </trkpt>
      <trkpt lat="45.74072" lon="2.96548">
        <ele>978.353349</ele>
        <time>2022-08-21T11:49:23.611Z</time>
      </trkpt>
      <trkpt lat="45.74075" lon="2.96521">
        <ele>979.241117</ele>
        <time>2022-08-21T11:49:33.067Z</time>
      </trkpt>
      <trkpt lat="45.74093" lon="2.96491">
        <ele>980.566077</ele>
        <time>2022-08-21T11:49:45.804Z</time>
      </trkpt>
      <trkpt lat="45.74124" lon="2.96438">
        <ele>983.027029</ele>
        <time>2022-08-21T11:50:07.158Z</time>
      </trkpt>
      <trkpt lat="45.74154" lon="2.96377">
        <ele>985.849964</ele>
        <time>2022-08-21T11:50:31.135Z</time>
      </trkpt>
      <trkpt lat="45.74173" lon="2.96321">
        <ele>988.236627</ele>
        <time>2022-08-21T11:50:53.544Z</time>
      </trkpt>
      <trkpt lat="45.74173" lon="2.96306">
        <ele>988.798941</ele>
        <time>2022-08-21T11:50:58.299Z</time>
      </trkpt>
      <trkpt lat="45.74168" lon="2.96207">
        <ele>992.807558</ele>
        <time>2022-08-21T11:51:34.845Z</time>
      </trkpt>
      <trkpt lat="45.74171" lon="2.96169">
        <ele>994.659776</ele>
        <time>2022-08-21T11:51:50.197Z</time>
      </trkpt>
      <trkpt lat="45.7418" lon="2.96136">
        <ele>996.407131</ele>
        <time>2022-08-21T11:52:03.797Z</time>
      </trkpt>
      <trkpt lat="45.74216" lon="2.9606">
        <ele>1000.909252</ele>
        <time>2022-08-21T11:52:41.551Z</time>
      </trkpt>
      <trkpt lat="45.74233" lon="2.96004">
        <ele>1003.90869</ele>
        <time>2022-08-21T11:53:08.298Z</time>
      </trkpt>
      <trkpt lat="45.74256" lon="2.95624">
        <ele>1022.152929</ele>
        <time>2022-08-21T11:55:35.542Z</time>
      </trkpt>
      <trkpt lat="45.74295" lon="2.95527">
        <ele>1027.700569</ele>
        <time>2022-08-21T11:56:21.371Z</time>
      </trkpt>
      <trkpt lat="45.74316" lon="2.95502">
        <ele>1029.678554</ele>
        <time>2022-08-21T11:56:38.188Z</time>
      </trkpt>
      <trkpt lat="45.74308" lon="2.95485">
        <ele>1031.050716</ele>
        <time>2022-08-21T11:56:47.085Z</time>
      </trkpt>
      <trkpt lat="45.7427" lon="2.954">
        <ele>1037.539304</ele>
        <time>2022-08-21T11:57:30.900Z</time>
      </trkpt>
      <trkpt lat="45.74224" lon="2.9527">
        <ele>1046.826145</ele>
        <time>2022-08-21T11:58:48.632Z</time>
      </trkpt>
      <trkpt lat="45.74196" lon="2.95175">
        <ele>1052.668829</ele>
        <time>2022-08-21T11:59:38.792Z</time>
      </trkpt>
      <trkpt lat="45.74177" lon="2.95095">
        <ele>1057.487262</ele>
        <time>2022-08-21T12:00:15.081Z</time>
      </trkpt>
      <trkpt lat="45.74155" lon="2.94885">
        <ele>1065.474277</ele>
        <time>2022-08-21T12:01:27.202Z</time>
      </trkpt>
      <trkpt lat="45.74104" lon="2.94536">
        <ele>1073.896446</ele>
        <time>2022-08-21T12:02:58.147Z</time>
      </trkpt>
      <trkpt lat="45.74082" lon="2.94377">
        <ele>1076.509072</ele>
        <time>2022-08-21T12:03:44.335Z</time>
      </trkpt>
      <trkpt lat="45.74062" lon="2.94251">
        <ele>1077.035125</ele>
        <time>2022-08-21T12:04:09.191Z</time>
      </trkpt>
      <trkpt lat="45.74039" lon="2.94173">
        <ele>1074.219234</ele>
        <time>2022-08-21T12:04:19.294Z</time>
      </trkpt>
      <trkpt lat="45.73907" lon="2.93861">
        <ele>1057.40681</ele>
        <time>2022-08-21T12:04:56.973Z</time>
      </trkpt>
      <trkpt lat="45.73755" lon="2.93528">
        <ele>1035.020385</ele>
        <time>2022-08-21T12:05:37.811Z</time>
      </trkpt>
      <trkpt lat="45.73611" lon="2.93216">
        <ele>1012.691579</ele>
        <time>2022-08-21T12:06:15.683Z</time>
      </trkpt>
      <trkpt lat="45.73583" lon="2.93171">
        <ele>1009.098149</ele>
        <time>2022-08-21T12:06:21.727Z</time>
      </trkpt>
      <trkpt lat="45.73544" lon="2.93122">
        <ele>1004.800927</ele>
        <time>2022-08-21T12:06:29.168Z</time>
      </trkpt>
      <trkpt lat="45.73512" lon="2.93086">
        <ele>1001.353598</ele>
        <time>2022-08-21T12:06:35.239Z</time>
      </trkpt>
      <trkpt lat="45.73469" lon="2.93034">
        <ele>996.688069</ele>
        <time>2022-08-21T12:06:43.412Z</time>
      </trkpt>
      <trkpt lat="45.73448" lon="2.92995">
        <ele>994.046977</ele>
        <time>2022-08-21T12:06:48.459Z</time>
      </trkpt>
      <trkpt lat="45.73424" lon="2.92936">
        <ele>990.655645</ele>
        <time>2022-08-21T12:06:55.550Z</time>
      </trkpt>
      <trkpt lat="45.73403" lon="2.92865">
        <ele>986.862643</ele>
        <time>2022-08-21T12:07:03.502Z</time>
      </trkpt>
      <trkpt lat="45.73281" lon="2.92828">
        <ele>978.83375</ele>
        <time>2022-08-21T12:07:38.537Z</time>
      </trkpt>
      <trkpt lat="45.73231" lon="2.92814">
        <ele>975.832442</ele>
        <time>2022-08-21T12:07:46.772Z</time>
      </trkpt>
      <trkpt lat="45.73186" lon="2.92773">
        <ele>972.698684</ele>
        <time>2022-08-21T12:07:55.431Z</time>
      </trkpt>
      <trkpt lat="45.73131" lon="2.92698">
        <ele>968.927266</ele>
        <time>2022-08-21T12:08:07.888Z</time>
      </trkpt>
      <trkpt lat="45.73074" lon="2.92639">
        <ele>965.526354</ele>
        <time>2022-08-21T12:08:19.746Z</time>
      </trkpt>
      <trkpt lat="45.73014" lon="2.92605">
        <ele>962.502486</ele>
        <time>2022-08-21T12:08:30.708Z</time>
      </trkpt>
      <trkpt lat="45.72951" lon="2.92588">
        <ele>959.708926</ele>
        <time>2022-08-21T12:08:41.818Z</time>
      </trkpt>
      <trkpt lat="45.72926" lon="2.9257">
        <ele>958.484415</ele>
        <time>2022-08-21T12:08:46.684Z</time>
      </trkpt>
      <trkpt lat="45.72873" lon="2.92506">
        <ele>955.427856</ele>
        <time>2022-08-21T12:08:58.399Z</time>
      </trkpt>
      <trkpt lat="45.72801" lon="2.9242">
        <ele>949.772249</ele>
        <time>2022-08-21T12:09:13.808Z</time>
      </trkpt>
      <trkpt lat="45.72698" lon="2.92323">
        <ele>941.932787</ele>
        <time>2022-08-21T12:09:33.280Z</time>
      </trkpt>
      <trkpt lat="45.72672" lon="2.92305">
        <ele>939.885221</ele>
        <time>2022-08-21T12:09:37.890Z</time>
      </trkpt>
      <trkpt lat="45.7263" lon="2.92242">
        <ele>935.666379</ele>
        <time>2022-08-21T12:09:47.254Z</time>
      </trkpt>
      <trkpt lat="45.72618" lon="2.92218">
        <ele>934.176841</ele>
        <time>2022-08-21T12:09:50.577Z</time>
      </trkpt>
      <trkpt lat="45.72599" lon="2.92172">
        <ele>931.678702</ele>
        <time>2022-08-21T12:09:56.432Z</time>
      </trkpt>
      <trkpt lat="45.72584" lon="2.92088">
        <ele>928.325095</ele>
        <time>2022-08-21T12:10:06.035Z</time>
      </trkpt>
      <trkpt lat="45.72568" lon="2.92059">
        <ele>926.843936</ele>
        <time>2022-08-21T12:10:10.299Z</time>
      </trkpt>
      <trkpt lat="45.72501" lon="2.92017">
        <ele>922.779871</ele>
        <time>2022-08-21T12:10:22.553Z</time>
      </trkpt>
      <trkpt lat="45.72435" lon="2.91938">
        <ele>919.793065</ele>
        <time>2022-08-21T12:10:37.552Z</time>
      </trkpt>
      <trkpt lat="45.72366" lon="2.9182">
        <ele>916.422483</ele>
        <time>2022-08-21T12:10:57.446Z</time>
      </trkpt>
      <trkpt lat="45.72325" lon="2.91732">
        <ele>915.089683</ele>
        <time>2022-08-21T12:11:11.032Z</time>
      </trkpt>
      <trkpt lat="45.72295" lon="2.91634">
        <ele>913.717319</ele>
        <time>2022-08-21T12:11:25.628Z</time>
      </trkpt>
      <trkpt lat="45.72276" lon="2.91532">
        <ele>913.64158</ele>
        <time>2022-08-21T12:11:42.159Z</time>
      </trkpt>
      <trkpt lat="45.72267" lon="2.91511">
        <ele>913.811834</ele>
        <time>2022-08-21T12:11:46.823Z</time>
      </trkpt>
      <trkpt lat="45.72238" lon="2.91479">
        <ele>914.179979</ele>
        <time>2022-08-21T12:11:58.237Z</time>
      </trkpt>
      <trkpt lat="45.72233" lon="2.91461">
        <ele>914.318959</ele>
        <time>2022-08-21T12:12:02.781Z</time>
      </trkpt>
      <trkpt lat="45.7217" lon="2.91379">
        <ele>914.879624</ele>
        <time>2022-08-21T12:12:30.737Z</time>
      </trkpt>
      <trkpt lat="45.72146" lon="2.91315">
        <ele>914.505784</ele>
        <time>2022-08-21T12:12:45.038Z</time>
      </trkpt>
      <trkpt lat="45.72136" lon="2.91298">
        <ele>914.389099</ele>
        <time>2022-08-21T12:12:48.897Z</time>
      </trkpt>
      <trkpt lat="45.72047" lon="2.9123">
        <ele>913.489149</ele>
        <time>2022-08-21T12:13:08.495Z</time>
      </trkpt>
      <trkpt lat="45.72018" lon="2.91198">
        <ele>911.832282</ele>
        <time>2022-08-21T12:13:14.638Z</time>
      </trkpt>
      <trkpt lat="45.71992" lon="2.9112">
        <ele>909.087684</ele>
        <time>2022-08-21T12:13:24.784Z</time>
      </trkpt>
      <trkpt lat="45.71979" lon="2.91059">
        <ele>907.08687</ele>
        <time>2022-08-21T12:13:32.116Z</time>
      </trkpt>
      <trkpt lat="45.71959" lon="2.91012">
        <ele>905.291417</ele>
        <time>2022-08-21T12:13:38.404Z</time>
      </trkpt>
      <trkpt lat="45.71956" lon="2.91006">
        <ele>904.997203</ele>
        <time>2022-08-21T12:13:39.220Z</time>
      </trkpt>
      <trkpt lat="45.71948" lon="2.90988">
        <ele>904.107816</ele>
        <time>2022-08-21T12:13:41.829Z</time>
      </trkpt>
      <trkpt lat="45.71945" lon="2.9098">
        <ele>903.769322</ele>
        <time>2022-08-21T12:13:42.829Z</time>
      </trkpt>
      <trkpt lat="45.71939" lon="2.9094">
        <ele>902.123177</ele>
        <time>2022-08-21T12:13:47.520Z</time>
      </trkpt>
      <trkpt lat="45.71939" lon="2.90867">
        <ele>899.164931</ele>
        <time>2022-08-21T12:13:55.877Z</time>
      </trkpt>
      <trkpt lat="45.71939" lon="2.90846">
        <ele>898.306502</ele>
        <time>2022-08-21T12:13:58.290Z</time>
      </trkpt>
      <trkpt lat="45.71918" lon="2.90748">
        <ele>895.138602</ele>
        <time>2022-08-21T12:14:09.795Z</time>
      </trkpt>
      <trkpt lat="45.71901" lon="2.90693">
        <ele>895.138602</ele>
        <time>2022-08-21T12:14:16.342Z</time>
      </trkpt>
      <trkpt lat="45.7187" lon="2.90645">
        <ele>895.138602</ele>
        <time>2022-08-21T12:14:23.374Z</time>
      </trkpt>
      <trkpt lat="45.71925" lon="2.90626">
        <ele>895.138602</ele>
        <time>2022-08-21T12:14:32.247Z</time>
      </trkpt>
      <trkpt lat="45.71919" lon="2.90587">
        <ele>895.138602</ele>
        <time>2022-08-21T12:14:36.836Z</time>
      </trkpt>
      <trkpt lat="45.7192" lon="2.90579">
        <ele>895.138602</ele>
        <time>2022-08-21T12:14:37.644Z</time>
      </trkpt>
    </trkseg>
  </trk>
</gpx>